Weather History for Plattsmouth, NE

Change the Weather History Date:

Friday, February 24, 2012

  Actual Average (KOFF) Record (KOFF)
Temperature  
Mean Temperature 31 °F -  
Max Temperature 36 °F 37 °F 64 °F (2006)
Min Temperature 25 °F 21 °F 1 °F (2003)
Degree Days  
Heating Degree Days 34    
Moisture  
Dew Point 26 °F    
Average Humidity 81    
Maximum Humidity 96    
Minimum Humidity 64    
Precipitation  
Precipitation 0.00 in - - ()
Sea Level Pressure  
Sea Level Pressure 30.03 in    
Wind  
Wind Speed 14 mph (NW)    
Max Wind Speed 23 mph    
Max Gust Speed 33 mph    
Visibility 10 miles    
Events Snow    
Averages and records for this station are not official NWS values.
T = Trace of Precipitation, MM = Missing Value Source: NWS Daily Summary

Daily Weather History Graph

Daily Weather History Graph

Search for Another Location

Airport:

Trip Planner

Search our weather history database for the weather conditions in past years. The results will help you decide how hot, cold, wet, or windy it might be!

Date:

Astronomy

Feb. 24, 2012 Rise Set
Actual Time 7:06 AM CST 6:08 PM CST
Civil Twilight 6:38 AM CST 6:36 PM CST
Nautical Twilight 6:06 AM CST 7:08 PM CST
Astronomical Twilight 5:34 AM CST 7:39 PM CST
Moon 7:59 AM CST (2/24) 9:15 PM CST (2/24)
Length of Visible Light 11h 57m
Length of Day
11h 02m
Waxing Crescent, 8% of the Moon is Illuminated
Feb 24
Waxing Crescent
Feb 29
First Quarter
Mar 8
Full
Mar 14
Last Quarter
Mar 22
New

Hourly Weather History & Observations

Time (CST) Temp. Windchill Dew Point Humidity Pressure Visibility Wind Dir Wind Speed Gust Speed Precip Events Conditions
12:15 AM 32.0 °F 22.1 °F 29.3 °F 90% 29.79 in 10.0 mi NW 13.8 mph 19.6 mph N/A   Overcast
12:35 AM 32.0 °F 21.6 °F 30.0 °F 92% 29.81 in 7.0 mi WNW 15.0 mph 19.6 mph N/A   Overcast
12:55 AM 32.0 °F 22.1 °F 30.7 °F 95% 29.82 in 4.0 mi WNW 13.8 mph 18.4 mph N/A Snow Light Snow
1:15 AM 32.4 °F 20.9 °F 31.3 °F 96% 29.82 in 4.0 mi NW 18.4 mph 23.0 mph N/A Snow Light Snow
1:35 AM 32.9 °F 21.3 °F 31.3 °F 94% 29.83 in 7.0 mi NW 19.6 mph 25.3 mph N/A   Overcast
1:55 AM 33.1 °F 21.5 °F 30.0 °F 89% 29.84 in 10.0 mi NW 19.6 mph - N/A   Overcast
2:15 AM 32.4 °F 20.6 °F 28.2 °F 85% 29.85 in 10.0 mi NW 19.6 mph 26.5 mph N/A   Overcast
2:35 AM 31.8 °F 19.9 °F 27.7 °F 85% 29.86 in 10.0 mi NW 19.6 mph - N/A   Mostly Cloudy
2:55 AM 31.3 °F 21.1 °F 27.3 °F 85% 29.87 in 10.0 mi WNW 13.8 mph 23.0 mph N/A   Clear
3:15 AM 30.7 °F 20.4 °F 26.4 °F 84% 29.87 in 10.0 mi NW 13.8 mph - N/A   Clear
3:35 AM 30.2 °F 20.8 °F 25.9 °F 84% 29.88 in 10.0 mi WNW 11.5 mph - N/A   Clear
3:55 AM 30.0 °F 20.5 °F 25.7 °F 84% 29.89 in 10.0 mi WNW 11.5 mph - N/A   Clear
4:15 AM 30.0 °F 19.1 °F 25.5 °F 83% 29.90 in 10.0 mi WNW 15.0 mph - N/A   Clear
4:35 AM 29.7 °F 19.6 °F 25.0 °F 83% 29.91 in 10.0 mi WNW 12.7 mph - N/A   Clear
4:55 AM 29.3 °F 19.1 °F 24.6 °F 83% 29.92 in 10.0 mi WNW 12.7 mph - N/A   Clear
5:15 AM 28.9 °F 18.2 °F 24.3 °F 83% 29.92 in 10.0 mi WNW 13.8 mph - N/A   Clear
5:35 AM 28.8 °F 17.9 °F 23.9 °F 82% 29.93 in 10.0 mi WNW 13.8 mph 18.4 mph N/A   Clear
6:15 AM 28.6 °F 18.7 °F 23.9 °F 83% 29.94 in 10.0 mi WNW 11.5 mph - N/A   Scattered Clouds
6:35 AM 29.7 °F 18.6 °F 25.0 °F 83% 29.95 in 10.0 mi WNW 15.0 mph - N/A   Overcast
6:55 AM 30.4 °F 20.0 °F 25.7 °F 83% 29.96 in 10.0 mi WNW 13.8 mph - N/A   Overcast
7:15 AM 30.4 °F 20.0 °F 27.3 °F 88% 29.97 in 3.0 mi WNW 13.8 mph - N/A Snow Light Snow
7:35 AM 31.5 °F 21.4 °F 28.2 °F 88% 29.98 in 10.0 mi NW 13.8 mph 19.6 mph N/A   Overcast
7:55 AM 32.0 °F 22.1 °F 28.0 °F 85% 29.99 in 10.0 mi WNW 13.8 mph - N/A   Overcast
8:15 AM 31.6 °F 21.6 °F 27.5 °F 85% 30.00 in 10.0 mi NW 13.8 mph - N/A   Mostly Cloudy
8:55 AM 32.5 °F 20.2 °F 26.4 °F 78% 30.02 in 10.0 mi NW 21.9 mph 33.4 mph N/A   Scattered Clouds
9:15 AM 32.2 °F 20.4 °F 24.8 °F 74% 30.04 in 10.0 mi NW 19.6 mph 27.6 mph N/A   Scattered Clouds
9:35 AM 32.9 °F 21.3 °F 25.2 °F 73% 30.05 in 10.0 mi WNW 19.6 mph 25.3 mph N/A   Scattered Clouds
9:55 AM 32.7 °F 21.4 °F 25.2 °F 74% 30.05 in 10.0 mi NW 18.4 mph 23.0 mph N/A   Mostly Cloudy
10:15 AM 33.1 °F 21.9 °F 24.1 °F 70% 30.06 in 10.0 mi WNW 18.4 mph 29.9 mph N/A   Scattered Clouds
10:35 AM 33.4 °F 22.0 °F 25.2 °F 72% 30.07 in 10.0 mi WNW 19.6 mph 25.3 mph N/A   Mostly Cloudy
10:55 AM 32.9 °F 21.6 °F 25.5 °F 74% 30.08 in 10.0 mi NW 18.4 mph 24.2 mph N/A   Overcast
11:15 AM 32.9 °F 20.4 °F 23.2 °F 67% 30.09 in 10.0 mi NW 23.0 mph 27.6 mph N/A   Mostly Cloudy
11:35 AM 33.8 °F 23.5 °F 24.1 °F 68% 30.09 in 10.0 mi NW 16.1 mph 27.6 mph N/A   Scattered Clouds
12:15 PM 36.0 °F 26.3 °F 24.8 °F 64% 30.10 in 10.0 mi WNW 16.1 mph 23.0 mph N/A   Mostly Cloudy
5:15 PM 32.5 °F 29.3 °F 31.1 °F 94% 30.11 in 10.0 mi WNW 3.5 mph - N/A   Clear
5:35 PM 32.7 °F 28.3 °F 31.1 °F 94% 30.11 in 10.0 mi NW 4.6 mph - N/A   Scattered Clouds
5:55 PM 32.2 °F 28.9 °F 30.7 °F 94% 30.11 in 10.0 mi WNW 3.5 mph - N/A   Clear
6:15 PM 32.0 °F 27.5 °F 30.0 °F 92% 30.13 in 10.0 mi WNW 4.6 mph - N/A   Scattered Clouds
6:35 PM 31.1 °F 25.4 °F 29.3 °F 93% 30.13 in 10.0 mi NW 5.8 mph - N/A   Clear
6:55 PM 30.7 °F 26.0 °F 28.8 °F 92% 30.14 in 10.0 mi WNW 4.6 mph - N/A   Clear
7:15 PM 31.1 °F 25.4 °F 29.3 °F 93% 30.14 in 10.0 mi WNW 5.8 mph - N/A   Clear
7:35 PM 30.9 °F 24.3 °F 28.2 °F 90% 30.15 in 10.0 mi WNW 6.9 mph - N/A   Clear
7:55 PM 30.6 °F 23.8 °F 27.3 °F 88% 30.15 in 10.0 mi NW 6.9 mph - N/A   Scattered Clouds
8:15 PM 30.2 °F 21.9 °F 24.6 °F 80% 30.16 in 10.0 mi NW 9.2 mph - N/A   Clear
8:35 PM 29.8 °F 21.5 °F 23.9 °F 79% 30.16 in 10.0 mi NW 9.2 mph - N/A   Clear
8:55 PM 30.0 °F 20.0 °F 23.4 °F 76% 30.17 in 10.0 mi NW 12.7 mph 20.7 mph N/A   Clear
9:15 PM 30.7 °F 18.8 °F 21.6 °F 69% 30.18 in 10.0 mi NW 18.4 mph 23.0 mph N/A   Clear
9:35 PM 30.2 °F 19.3 °F 20.3 °F 67% 30.19 in 10.0 mi NW 15.0 mph 23.0 mph N/A   Clear
9:55 PM 29.8 °F 18.4 °F 20.1 °F 67% 30.20 in 10.0 mi NW 16.1 mph - N/A   Clear
10:15 PM 29.1 °F 18.9 °F 20.5 °F 70% 30.21 in 10.0 mi WNW 12.7 mph - N/A   Clear
10:35 PM 28.9 °F 17.3 °F 19.4 °F 68% 30.21 in 10.0 mi NW 16.1 mph 24.2 mph N/A   Clear
10:55 PM 28.2 °F 15.9 °F 18.5 °F 67% 30.22 in 10.0 mi NW 17.3 mph 21.9 mph N/A   Clear
11:15 PM 27.3 °F 15.6 °F 16.7 °F 64% 30.22 in 10.0 mi NW 15.0 mph 23.0 mph N/A   Clear
11:35 PM 26.1 °F 15.6 °F 17.6 °F 70% 30.23 in 10.0 mi NW 11.5 mph - N/A   Clear
11:55 PM 25.2 °F 12.9 °F 17.6 °F 73% 30.24 in 10.0 mi NW 15.0 mph - N/A   Clear